sensor_id;sensor_type;location;lat;lon;timestamp;temperature;humidity
5286;DHT22;2665;53.112;7.358;2023-02-01T00:02:16;5.80;1.00
5286;DHT22;2665;53.112;7.358;2023-02-01T00:04:41;5.80;1.00
5286;DHT22;2665;53.112;7.358;2023-02-01T00:07:07;5.80;1.00
5286;DHT22;2665;53.112;7.358;2023-02-01T00:09:32;5.80;1.00
5286;DHT22;2665;53.112;7.358;2023-02-01T00:11:58;5.80;1.00
5286;DHT22;2665;53.112;7.358;2023-02-01T00:14:27;5.80;1.00
5286;DHT22;2665;53.112;7.358;2023-02-01T00:16:53;5.80;1.00
5286;DHT22;2665;53.112;7.358;2023-02-01T00:19:18;5.90;1.00
5286;DHT22;2665;53.112;7.358;2023-02-01T00:21:44;5.90;1.00
5286;DHT22;2665;53.112;7.358;2023-02-01T00:24:11;5.90;1.00
5286;DHT22;2665;53.112;7.358;2023-02-01T00:26:39;5.90;1.00
5286;DHT22;2665;53.112;7.358;2023-02-01T00:29:10;5.90;1.00
5286;DHT22;2665;53.112;7.358;2023-02-01T00:31:36;5.80;1.00
5286;DHT22;2665;53.112;7.358;2023-02-01T00:34:02;5.80;20.80
5286;DHT22;2665;53.112;7.358;2023-02-01T00:36:28;5.80;11.10
5286;DHT22;2665;53.112;7.358;2023-02-01T00:38:54;5.90;11.80
5286;DHT22;2665;53.112;7.358;2023-02-01T00:41:21;5.80;23.20
5286;DHT22;2665;53.112;7.358;2023-02-01T00:43:48;5.90;45.40
5286;DHT22;2665;53.112;7.358;2023-02-01T00:46:15;5.90;2.50
5286;DHT22;2665;53.112;7.358;2023-02-01T00:48:41;5.90;1.00
5286;DHT22;2665;53.112;7.358;2023-02-01T00:51:10;6.00;1.00
5286;DHT22;2665;53.112;7.358;2023-02-01T00:53:36;6.00;1.00
5286;DHT22;2665;53.112;7.358;2023-02-01T00:56:03;6.00;1.00
5286;DHT22;2665;53.112;7.358;2023-02-01T00:58:29;6.10;1.00
5286;DHT22;2665;53.112;7.358;2023-02-01T01:03:44;6.00;1.00
5286;DHT22;2665;53.112;7.358;2023-02-01T01:06:14;6.10;1.00
5286;DHT22;2665;53.112;7.358;2023-02-01T01:08:40;6.10;1.00
5286;DHT22;2665;53.112;7.358;2023-02-01T01:11:08;6.10;1.00
5286;DHT22;2665;53.112;7.358;2023-02-01T01:13:34;6.10;1.00
5286;DHT22;2665;53.112;7.358;2023-02-01T01:16:05;6.10;1.00
5286;DHT22;2665;53.112;7.358;2023-02-01T01:18:32;6.10;1.00
5286;DHT22;2665;53.112;7.358;2023-02-01T01:20:59;6.10;1.00
5286;DHT22;2665;53.112;7.358;2023-02-01T01:23:25;6.10;1.00
5286;DHT22;2665;53.112;7.358;2023-02-01T01:25:51;6.20;1.00
5286;DHT22;2665;53.112;7.358;2023-02-01T01:28:16;6.20;1.00
5286;DHT22;2665;53.112;7.358;2023-02-01T01:30:42;6.20;1.00
5286;DHT22;2665;53.112;7.358;2023-02-01T01:33:08;6.20;1.00
5286;DHT22;2665;53.112;7.358;2023-02-01T01:35:33;6.20;1.00
5286;DHT22;2665;53.112;7.358;2023-02-01T01:38:00;6.20;1.00
5286;DHT22;2665;53.112;7.358;2023-02-01T01:40:27;6.10;18.00
5286;DHT22;2665;53.112;7.358;2023-02-01T01:42:53;6.00;50.10
5286;DHT22;2665;53.112;7.358;2023-02-01T01:45:29;6.00;70.40
5286;DHT22;2665;53.112;7.358;2023-02-01T01:47:58;6.00;99.90
5286;DHT22;2665;53.112;7.358;2023-02-01T01:50:31;5.90;99.90
5286;DHT22;2665;53.112;7.358;2023-02-01T01:53:01;5.90;99.90
5286;DHT22;2665;53.112;7.358;2023-02-01T01:55:32;5.90;99.90
5286;DHT22;2665;53.112;7.358;2023-02-01T01:58:03;5.90;99.90
5286;DHT22;2665;53.112;7.358;2023-02-01T02:00:31;5.90;99.90
5286;DHT22;2665;53.112;7.358;2023-02-01T02:03:09;5.80;99.90
5286;DHT22;2665;53.112;7.358;2023-02-01T02:05:37;5.90;1.00
5286;DHT22;2665;53.112;7.358;2023-02-01T02:08:03;5.80;1.00
5286;DHT22;2665;53.112;7.358;2023-02-01T02:10:29;5.80;1.00
5286;DHT22;2665;53.112;7.358;2023-02-01T02:13:15;5.80;1.00
5286;DHT22;2665;53.112;7.358;2023-02-01T02:15:49;5.80;1.00
5286;DHT22;2665;53.112;7.358;2023-02-01T02:18:25;5.80;1.00
5286;DHT22;2665;53.112;7.358;2023-02-01T02:29:38;5.80;1.00
5286;DHT22;2665;53.112;7.358;2023-02-01T02:35:06;5.60;99.90
5286;DHT22;2665;53.112;7.358;2023-02-01T02:41:07;5.30;99.90
5286;DHT22;2665;53.112;7.358;2023-02-01T02:43:46;5.20;1.00
5286;DHT22;2665;53.112;7.358;2023-02-01T02:46:38;5.20;99.90
5286;DHT22;2665;53.112;7.358;2023-02-01T02:52:44;5.30;1.00
5286;DHT22;2665;53.112;7.358;2023-02-01T02:55:31;5.30;99.90
5286;DHT22;2665;53.112;7.358;2023-02-01T02:58:03;5.20;1.00
5286;DHT22;2665;53.112;7.358;2023-02-01T03:00:48;5.30;1.00
5286;DHT22;2665;53.112;7.358;2023-02-01T03:03:37;5.20;79.50
5286;DHT22;2665;53.112;7.358;2023-02-01T03:06:23;5.20;99.90
5286;DHT22;2665;53.112;7.358;2023-02-01T03:08:49;5.20;1.00
5286;DHT22;2665;53.112;7.358;2023-02-01T03:11:23;5.20;99.90
5286;DHT22;2665;53.112;7.358;2023-02-01T03:14:13;5.20;99.90
5286;DHT22;2665;53.112;7.358;2023-02-01T03:16:47;5.20;69.20
5286;DHT22;2665;53.112;7.358;2023-02-01T03:21:50;5.20;1.00
5286;DHT22;2665;53.112;7.358;2023-02-01T03:24:23;5.20;99.90
5286;DHT22;2665;53.112;7.358;2023-02-01T03:27:05;5.30;99.90
5286;DHT22;2665;53.112;7.358;2023-02-01T03:29:40;5.30;99.90
5286;DHT22;2665;53.112;7.358;2023-02-01T03:32:07;5.30;99.90
5286;DHT22;2665;53.112;7.358;2023-02-01T03:34:34;5.30;1.00
5286;DHT22;2665;53.112;7.358;2023-02-01T03:37:04;5.30;1.00
5286;DHT22;2665;53.112;7.358;2023-02-01T03:42:03;5.40;99.90
5286;DHT22;2665;53.112;7.358;2023-02-01T03:44:34;5.40;1.00
5286;DHT22;2665;53.112;7.358;2023-02-01T03:47:04;5.50;1.00
5286;DHT22;2665;53.112;7.358;2023-02-01T03:52:01;5.50;99.90
5286;DHT22;2665;53.112;7.358;2023-02-01T03:54:29;5.50;1.00
5286;DHT22;2665;53.112;7.358;2023-02-01T03:56:57;5.50;1.00
5286;DHT22;2665;53.112;7.358;2023-02-01T03:59:24;5.40;99.90
5286;DHT22;2665;53.112;7.358;2023-02-01T04:01:50;5.30;1.00
5286;DHT22;2665;53.112;7.358;2023-02-01T04:04:16;5.30;1.00
5286;DHT22;2665;53.112;7.358;2023-02-01T04:06:49;5.40;1.00
5286;DHT22;2665;53.112;7.358;2023-02-01T04:09:16;5.40;99.90
5286;DHT22;2665;53.112;7.358;2023-02-01T04:11:41;5.50;1.00
5286;DHT22;2665;53.112;7.358;2023-02-01T04:14:07;5.60;99.90
5286;DHT22;2665;53.112;7.358;2023-02-01T04:16:33;5.60;99.90
5286;DHT22;2665;53.112;7.358;2023-02-01T04:19:00;5.60;1.00
5286;DHT22;2665;53.112;7.358;2023-02-01T04:21:26;5.60;1.00
5286;DHT22;2665;53.112;7.358;2023-02-01T04:23:52;5.60;1.00
5286;DHT22;2665;53.112;7.358;2023-02-01T04:26:18;5.60;1.00
5286;DHT22;2665;53.112;7.358;2023-02-01T04:28:45;5.60;25.60
5286;DHT22;2665;53.112;7.358;2023-02-01T04:31:14;5.40;99.90
5286;DHT22;2665;53.112;7.358;2023-02-01T04:33:39;5.20;1.00
5286;DHT22;2665;53.112;7.358;2023-02-01T04:36:05;5.10;99.90
5286;DHT22;2665;53.112;7.358;2023-02-01T04:38:31;5.10;99.90
5286;DHT22;2665;53.112;7.358;2023-02-01T04:40:57;5.10;1.00
5286;DHT22;2665;53.112;7.358;2023-02-01T04:43:23;5.20;99.90
5286;DHT22;2665;53.112;7.358;2023-02-01T04:45:50;5.30;99.90
5286;DHT22;2665;53.112;7.358;2023-02-01T04:48:17;5.40;99.90
5286;DHT22;2665;53.112;7.358;2023-02-01T04:50:45;5.50;99.90
5286;DHT22;2665;53.112;7.358;2023-02-01T04:53:14;5.50;1.00
5286;DHT22;2665;53.112;7.358;2023-02-01T04:55:40;5.50;99.90
5286;DHT22;2665;53.112;7.358;2023-02-01T04:58:06;5.50;99.90
5286;DHT22;2665;53.112;7.358;2023-02-01T05:00:31;5.50;1.00
5286;DHT22;2665;53.112;7.358;2023-02-01T05:02:57;5.50;99.90
5286;DHT22;2665;53.112;7.358;2023-02-01T05:05:23;5.50;99.90
5286;DHT22;2665;53.112;7.358;2023-02-01T05:07:48;5.60;1.00
5286;DHT22;2665;53.112;7.358;2023-02-01T05:10:14;5.70;99.90
5286;DHT22;2665;53.112;7.358;2023-02-01T05:12:40;5.70;63.70
5286;DHT22;2665;53.112;7.358;2023-02-01T05:15:24;5.80;1.00
5286;DHT22;2665;53.112;7.358;2023-02-01T05:17:49;5.80;1.00
5286;DHT22;2665;53.112;7.358;2023-02-01T05:20:15;5.80;99.90
5286;DHT22;2665;53.112;7.358;2023-02-01T05:22:41;5.80;72.30
5286;DHT22;2665;53.112;7.358;2023-02-01T05:25:07;5.80;1.00
5286;DHT22;2665;53.112;7.358;2023-02-01T05:27:33;5.90;1.00
5286;DHT22;2665;53.112;7.358;2023-02-01T05:29:58;5.90;1.00
5286;DHT22;2665;53.112;7.358;2023-02-01T05:32:24;5.90;1.00
5286;DHT22;2665;53.112;7.358;2023-02-01T05:34:50;6.00;99.90
5286;DHT22;2665;53.112;7.358;2023-02-01T05:37:15;6.00;91.80
5286;DHT22;2665;53.112;7.358;2023-02-01T05:39:41;6.10;1.00
5286;DHT22;2665;53.112;7.358;2023-02-01T05:42:06;6.10;1.00
5286;DHT22;2665;53.112;7.358;2023-02-01T05:44:32;6.10;1.00
5286;DHT22;2665;53.112;7.358;2023-02-01T05:46:57;6.20;99.90
5286;DHT22;2665;53.112;7.358;2023-02-01T05:49:23;6.20;99.90
5286;DHT22;2665;53.112;7.358;2023-02-01T05:51:49;6.20;99.90
5286;DHT22;2665;53.112;7.358;2023-02-01T05:54:14;6.10;99.90
5286;DHT22;2665;53.112;7.358;2023-02-01T05:56:40;6.10;99.90
5286;DHT22;2665;53.112;7.358;2023-02-01T05:59:06;6.00;1.00
5286;DHT22;2665;53.112;7.358;2023-02-01T06:01:31;6.10;1.00
5286;DHT22;2665;53.112;7.358;2023-02-01T06:03:57;6.20;99.90
5286;DHT22;2665;53.112;7.358;2023-02-01T06:06:23;6.20;99.90
5286;DHT22;2665;53.112;7.358;2023-02-01T06:08:48;6.20;99.90
5286;DHT22;2665;53.112;7.358;2023-02-01T06:11:14;6.20;99.90
5286;DHT22;2665;53.112;7.358;2023-02-01T06:13:39;6.10;99.90
5286;DHT22;2665;53.112;7.358;2023-02-01T06:16:05;6.10;1.00
5286;DHT22;2665;53.112;7.358;2023-02-01T06:18:34;6.00;1.00
5286;DHT22;2665;53.112;7.358;2023-02-01T06:21:00;6.00;1.00
5286;DHT22;2665;53.112;7.358;2023-02-01T06:23:26;6.00;1.00
5286;DHT22;2665;53.112;7.358;2023-02-01T06:26:03;5.70;1.00
5286;DHT22;2665;53.112;7.358;2023-02-01T06:28:30;5.50;99.90
5286;DHT22;2665;53.112;7.358;2023-02-01T06:30:56;5.50;99.90
5286;DHT22;2665;53.112;7.358;2023-02-01T06:33:26;5.50;1.00
5286;DHT22;2665;53.112;7.358;2023-02-01T06:35:58;5.60;1.00
5286;DHT22;2665;53.112;7.358;2023-02-01T06:38:24;5.70;1.00
5286;DHT22;2665;53.112;7.358;2023-02-01T06:40:56;5.70;99.90
5286;DHT22;2665;53.112;7.358;2023-02-01T06:43:23;5.90;99.90
5286;DHT22;2665;53.112;7.358;2023-02-01T06:45:49;6.00;99.90
5286;DHT22;2665;53.112;7.358;2023-02-01T06:48:14;5.90;56.30
5286;DHT22;2665;53.112;7.358;2023-02-01T06:50:40;6.00;1.00
5286;DHT22;2665;53.112;7.358;2023-02-01T06:53:06;6.00;1.00
5286;DHT22;2665;53.112;7.358;2023-02-01T06:55:31;6.00;1.00
5286;DHT22;2665;53.112;7.358;2023-02-01T06:57:57;6.00;1.00
5286;DHT22;2665;53.112;7.358;2023-02-01T07:00:23;6.00;1.00
5286;DHT22;2665;53.112;7.358;2023-02-01T07:02:49;6.00;1.00
5286;DHT22;2665;53.112;7.358;2023-02-01T07:05:15;6.00;1.00
5286;DHT22;2665;53.112;7.358;2023-02-01T07:07:41;6.00;1.00
5286;DHT22;2665;53.112;7.358;2023-02-01T07:10:07;6.00;1.00
5286;DHT22;2665;53.112;7.358;2023-02-01T07:12:33;6.00;1.00
5286;DHT22;2665;53.112;7.358;2023-02-01T07:14:58;5.90;1.00
5286;DHT22;2665;53.112;7.358;2023-02-01T07:17:24;5.90;99.90
5286;DHT22;2665;53.112;7.358;2023-02-01T07:19:49;5.70;99.90
5286;DHT22;2665;53.112;7.358;2023-02-01T07:22:18;5.50;1.00
5286;DHT22;2665;53.112;7.358;2023-02-01T07:24:44;5.40;1.00
5286;DHT22;2665;53.112;7.358;2023-02-01T07:27:09;5.40;99.90
5286;DHT22;2665;53.112;7.358;2023-02-01T07:29:35;5.40;99.90
5286;DHT22;2665;53.112;7.358;2023-02-01T07:32:00;5.40;99.90
5286;DHT22;2665;53.112;7.358;2023-02-01T07:34:28;5.40;9.50
5286;DHT22;2665;53.112;7.358;2023-02-01T07:36:54;5.40;99.90
5286;DHT22;2665;53.112;7.358;2023-02-01T07:39:19;5.50;77.30
5286;DHT22;2665;53.112;7.358;2023-02-01T07:41:46;5.50;99.90
5286;DHT22;2665;53.112;7.358;2023-02-01T07:44:11;5.50;1.00
5286;DHT22;2665;53.112;7.358;2023-02-01T07:46:37;5.60;1.00
5286;DHT22;2665;53.112;7.358;2023-02-01T07:49:04;5.60;99.90
5286;DHT22;2665;53.112;7.358;2023-02-01T07:51:30;5.70;99.90
5286;DHT22;2665;53.112;7.358;2023-02-01T07:53:56;5.80;1.00
5286;DHT22;2665;53.112;7.358;2023-02-01T07:56:22;5.90;44.10
5286;DHT22;2665;53.112;7.358;2023-02-01T07:58:52;6.00;1.00
5286;DHT22;2665;53.112;7.358;2023-02-01T08:01:21;6.00;1.00
5286;DHT22;2665;53.112;7.358;2023-02-01T08:03:56;6.00;99.90
5286;DHT22;2665;53.112;7.358;2023-02-01T08:06:23;6.00;99.90
5286;DHT22;2665;53.112;7.358;2023-02-01T08:08:51;6.10;99.90
5286;DHT22;2665;53.112;7.358;2023-02-01T08:11:18;6.10;99.90
5286;DHT22;2665;53.112;7.358;2023-02-01T08:13:44;6.10;99.90
5286;DHT22;2665;53.112;7.358;2023-02-01T08:16:11;6.10;91.60
5286;DHT22;2665;53.112;7.358;2023-02-01T08:18:38;6.20;1.00
5286;DHT22;2665;53.112;7.358;2023-02-01T08:21:09;6.20;1.00
5286;DHT22;2665;53.112;7.358;2023-02-01T08:23:37;6.20;1.00
5286;DHT22;2665;53.112;7.358;2023-02-01T08:26:18;6.20;1.00
5286;DHT22;2665;53.112;7.358;2023-02-01T08:28:46;6.20;1.00
5286;DHT22;2665;53.112;7.358;2023-02-01T08:31:14;6.30;1.00
5286;DHT22;2665;53.112;7.358;2023-02-01T08:33:41;6.30;1.00
5286;DHT22;2665;53.112;7.358;2023-02-01T08:36:09;6.30;1.00
5286;DHT22;2665;53.112;7.358;2023-02-01T08:38:39;6.30;9.50
5286;DHT22;2665;53.112;7.358;2023-02-01T08:41:09;6.30;12.90
5286;DHT22;2665;53.112;7.358;2023-02-01T08:43:35;6.30;13.00
5286;DHT22;2665;53.112;7.358;2023-02-01T08:46:02;6.30;13.00
5286;DHT22;2665;53.112;7.358;2023-02-01T08:48:28;6.30;13.50
5286;DHT22;2665;53.112;7.358;2023-02-01T08:50:54;6.30;13.50
5286;DHT22;2665;53.112;7.358;2023-02-01T08:53:19;6.30;12.90
5286;DHT22;2665;53.112;7.358;2023-02-01T08:55:46;6.40;13.00
5286;DHT22;2665;53.112;7.358;2023-02-01T08:58:12;6.30;1.00
5286;DHT22;2665;53.112;7.358;2023-02-01T09:00:43;6.40;1.00
5286;DHT22;2665;53.112;7.358;2023-02-01T09:03:11;6.40;1.00
5286;DHT22;2665;53.112;7.358;2023-02-01T09:05:37;6.40;1.00
5286;DHT22;2665;53.112;7.358;2023-02-01T09:08:03;6.40;1.00
5286;DHT22;2665;53.112;7.358;2023-02-01T09:10:30;6.50;1.00
5286;DHT22;2665;53.112;7.358;2023-02-01T09:12:56;6.50;1.00
5286;DHT22;2665;53.112;7.358;2023-02-01T09:15:22;6.50;1.00
5286;DHT22;2665;53.112;7.358;2023-02-01T09:17:48;6.50;1.00
5286;DHT22;2665;53.112;7.358;2023-02-01T09:20:14;6.50;1.00
5286;DHT22;2665;53.112;7.358;2023-02-01T09:22:40;6.50;1.00
5286;DHT22;2665;53.112;7.358;2023-02-01T09:25:06;6.50;1.00
5286;DHT22;2665;53.112;7.358;2023-02-01T09:27:32;6.50;1.00
5286;DHT22;2665;53.112;7.358;2023-02-01T09:29:58;6.50;1.00
5286;DHT22;2665;53.112;7.358;2023-02-01T09:32:24;6.50;1.00
5286;DHT22;2665;53.112;7.358;2023-02-01T09:34:51;6.50;1.00
5286;DHT22;2665;53.112;7.358;2023-02-01T09:37:17;6.50;1.00
5286;DHT22;2665;53.112;7.358;2023-02-01T09:39:43;6.50;1.00
5286;DHT22;2665;53.112;7.358;2023-02-01T09:47:53;6.40;1.00
5286;DHT22;2665;53.112;7.358;2023-02-01T09:50:23;6.40;13.80
5286;DHT22;2665;53.112;7.358;2023-02-01T09:52:57;6.40;93.40
5286;DHT22;2665;53.112;7.358;2023-02-01T09:55:46;6.40;1.00
5286;DHT22;2665;53.112;7.358;2023-02-01T09:58:35;6.40;1.00
5286;DHT22;2665;53.112;7.358;2023-02-01T10:01:04;6.40;1.00
5286;DHT22;2665;53.112;7.358;2023-02-01T10:03:33;6.40;1.00
5286;DHT22;2665;53.112;7.358;2023-02-01T10:06:30;6.40;1.00
5286;DHT22;2665;53.112;7.358;2023-02-01T10:14:45;6.30;99.90
5286;DHT22;2665;53.112;7.358;2023-02-01T10:22:42;6.00;99.90
5286;DHT22;2665;53.112;7.358;2023-02-01T10:27:49;5.70;99.90
5286;DHT22;2665;53.112;7.358;2023-02-01T10:30:35;5.70;1.00
5286;DHT22;2665;53.112;7.358;2023-02-01T10:33:32;5.70;99.90
5286;DHT22;2665;53.112;7.358;2023-02-01T10:38:34;5.50;1.00
5286;DHT22;2665;53.112;7.358;2023-02-01T10:41:23;5.40;56.70
5286;DHT22;2665;53.112;7.358;2023-02-01T10:43:53;5.30;1.00
5286;DHT22;2665;53.112;7.358;2023-02-01T10:46:20;5.20;99.90
5286;DHT22;2665;53.112;7.358;2023-02-01T10:48:45;5.20;1.00
5286;DHT22;2665;53.112;7.358;2023-02-01T10:51:19;5.10;70.90
5286;DHT22;2665;53.112;7.358;2023-02-01T10:53:58;5.10;99.90
5286;DHT22;2665;53.112;7.358;2023-02-01T10:56:27;5.10;99.90
5286;DHT22;2665;53.112;7.358;2023-02-01T10:59:02;5.20;99.90
5286;DHT22;2665;53.112;7.358;2023-02-01T11:01:33;5.10;99.90
5286;DHT22;2665;53.112;7.358;2023-02-01T11:04:05;5.20;99.90
5286;DHT22;2665;53.112;7.358;2023-02-01T11:06:37;5.20;99.90
5286;DHT22;2665;53.112;7.358;2023-02-01T11:09:11;5.20;1.00
5286;DHT22;2665;53.112;7.358;2023-02-01T11:16:40;5.20;1.00
5286;DHT22;2665;53.112;7.358;2023-02-01T11:19:14;5.20;1.00
5286;DHT22;2665;53.112;7.358;2023-02-01T11:24:20;5.40;1.00
5286;DHT22;2665;53.112;7.358;2023-02-01T11:26:47;5.60;1.00
5286;DHT22;2665;53.112;7.358;2023-02-01T11:29:17;5.90;99.90
5286;DHT22;2665;53.112;7.358;2023-02-01T11:31:45;6.10;99.90
5286;DHT22;2665;53.112;7.358;2023-02-01T11:34:15;6.50;99.90
5286;DHT22;2665;53.112;7.358;2023-02-01T11:49:43;2.10;99.90
5286;DHT22;2665;53.112;7.358;2023-02-01T11:55:13;1.80;1.00
5286;DHT22;2665;53.112;7.358;2023-02-01T11:57:51;1.80;42.20
5286;DHT22;2665;53.112;7.358;2023-02-01T12:00:59;1.70;99.90
5286;DHT22;2665;53.112;7.358;2023-02-01T12:03:31;1.60;1.00
5286;DHT22;2665;53.112;7.358;2023-02-01T12:17:42;1.80;99.90
5286;DHT22;2665;53.112;7.358;2023-02-01T12:37:01;2.10;41.30
5286;DHT22;2665;53.112;7.358;2023-02-01T12:39:39;2.20;99.90
5286;DHT22;2665;53.112;7.358;2023-02-01T12:42:25;2.40;99.90
5286;DHT22;2665;53.112;7.358;2023-02-01T12:50:59;3.10;1.00
5286;DHT22;2665;53.112;7.358;2023-02-01T12:53:50;3.40;99.90
5286;DHT22;2665;53.112;7.358;2023-02-01T12:56:49;3.60;87.00
5286;DHT22;2665;53.112;7.358;2023-02-01T13:05:05;4.10;99.90
5286;DHT22;2665;53.112;7.358;2023-02-01T13:07:52;4.10;1.00
5286;DHT22;2665;53.112;7.358;2023-02-01T13:10:29;4.20;99.90
5286;DHT22;2665;53.112;7.358;2023-02-01T13:13:21;4.30;99.90
5286;DHT22;2665;53.112;7.358;2023-02-01T13:18:34;4.30;1.00
5286;DHT22;2665;53.112;7.358;2023-02-01T13:21:08;4.40;29.20
5286;DHT22;2665;53.112;7.358;2023-02-01T13:23:38;4.50;1.00
5286;DHT22;2665;53.112;7.358;2023-02-01T13:26:04;4.70;99.90
5286;DHT22;2665;53.112;7.358;2023-02-01T13:28:37;5.00;99.90
5286;DHT22;2665;53.112;7.358;2023-02-01T13:36:59;5.30;99.90
5286;DHT22;2665;53.112;7.358;2023-02-01T13:39:48;5.50;1.00
5286;DHT22;2665;53.112;7.358;2023-02-01T13:42:49;5.60;99.90
5286;DHT22;2665;53.112;7.358;2023-02-01T13:45:21;6.00;99.90
5286;DHT22;2665;53.112;7.358;2023-02-01T13:47:51;6.40;1.00
5286;DHT22;2665;53.112;7.358;2023-02-01T13:53:02;7.20;1.00
5286;DHT22;2665;53.112;7.358;2023-02-01T13:55:36;7.70;99.90
5286;DHT22;2665;53.112;7.358;2023-02-01T14:00:35;7.50;99.90
5286;DHT22;2665;53.112;7.358;2023-02-01T14:10:56;7.20;99.90
5286;DHT22;2665;53.112;7.358;2023-02-01T14:13:35;7.30;99.90
5286;DHT22;2665;53.112;7.358;2023-02-01T14:18:57;7.70;99.90
5286;DHT22;2665;53.112;7.358;2023-02-01T14:21:34;7.80;1.00
5286;DHT22;2665;53.112;7.358;2023-02-01T14:31:33;7.40;1.00
5286;DHT22;2665;53.112;7.358;2023-02-01T14:34:02;7.50;1.00
5286;DHT22;2665;53.112;7.358;2023-02-01T14:36:52;7.60;1.00
5286;DHT22;2665;53.112;7.358;2023-02-01T14:39:23;7.70;1.00
5286;DHT22;2665;53.112;7.358;2023-02-01T14:41:54;7.60;1.00
5286;DHT22;2665;53.112;7.358;2023-02-01T15:36:37;7.30;1.00
5286;DHT22;2665;53.112;7.358;2023-02-01T15:39:23;7.30;1.00
5286;DHT22;2665;53.112;7.358;2023-02-01T15:42:08;7.40;1.00
5286;DHT22;2665;53.112;7.358;2023-02-01T15:44:40;7.30;1.00
5286;DHT22;2665;53.112;7.358;2023-02-01T15:49:40;7.30;1.00
5286;DHT22;2665;53.112;7.358;2023-02-01T15:52:27;7.20;1.00
5286;DHT22;2665;53.112;7.358;2023-02-01T15:54:59;7.20;1.00
5286;DHT22;2665;53.112;7.358;2023-02-01T15:57:36;7.20;1.00
5286;DHT22;2665;53.112;7.358;2023-02-01T16:00:07;7.20;1.00
5286;DHT22;2665;53.112;7.358;2023-02-01T16:02:34;7.20;1.00
5286;DHT22;2665;53.112;7.358;2023-02-01T16:05:02;7.20;1.00
5286;DHT22;2665;53.112;7.358;2023-02-01T16:07:30;7.10;1.00
5286;DHT22;2665;53.112;7.358;2023-02-01T16:09:59;7.10;1.00
5286;DHT22;2665;53.112;7.358;2023-02-01T16:12:29;7.10;1.00
5286;DHT22;2665;53.112;7.358;2023-02-01T16:14:55;7.00;1.00
5286;DHT22;2665;53.112;7.358;2023-02-01T16:17:21;7.00;1.00
5286;DHT22;2665;53.112;7.358;2023-02-01T16:19:46;6.90;1.00
5286;DHT22;2665;53.112;7.358;2023-02-01T16:22:12;6.90;1.00
5286;DHT22;2665;53.112;7.358;2023-02-01T16:24:37;6.90;1.00
5286;DHT22;2665;53.112;7.358;2023-02-01T16:27:03;6.90;1.00
5286;DHT22;2665;53.112;7.358;2023-02-01T16:29:32;6.80;1.00
5286;DHT22;2665;53.112;7.358;2023-02-01T16:31:58;6.90;1.00
5286;DHT22;2665;53.112;7.358;2023-02-01T16:34:23;6.90;1.00
5286;DHT22;2665;53.112;7.358;2023-02-01T16:36:49;6.90;1.00
5286;DHT22;2665;53.112;7.358;2023-02-01T16:39:21;6.80;1.00
5286;DHT22;2665;53.112;7.358;2023-02-01T16:41:47;6.90;1.00
5286;DHT22;2665;53.112;7.358;2023-02-01T16:44:12;6.90;1.00
5286;DHT22;2665;53.112;7.358;2023-02-01T16:46:43;6.90;1.00
5286;DHT22;2665;53.112;7.358;2023-02-01T16:49:22;6.90;1.00
5286;DHT22;2665;53.112;7.358;2023-02-01T16:51:50;6.90;1.00
5286;DHT22;2665;53.112;7.358;2023-02-01T16:54:18;6.80;1.00
5286;DHT22;2665;53.112;7.358;2023-02-01T16:56:45;6.80;1.00
5286;DHT22;2665;53.112;7.358;2023-02-01T16:59:11;6.80;1.00
5286;DHT22;2665;53.112;7.358;2023-02-01T17:01:38;6.80;1.00
5286;DHT22;2665;53.112;7.358;2023-02-01T17:04:04;6.70;1.00
5286;DHT22;2665;53.112;7.358;2023-02-01T17:06:30;6.70;1.00
5286;DHT22;2665;53.112;7.358;2023-02-01T17:08:58;6.70;1.00
5286;DHT22;2665;53.112;7.358;2023-02-01T17:11:25;6.60;1.00
5286;DHT22;2665;53.112;7.358;2023-02-01T17:13:51;6.60;1.00
5286;DHT22;2665;53.112;7.358;2023-02-01T17:18:43;6.60;1.00
5286;DHT22;2665;53.112;7.358;2023-02-01T17:21:10;6.60;1.00
5286;DHT22;2665;53.112;7.358;2023-02-01T17:23:36;6.60;1.00
5286;DHT22;2665;53.112;7.358;2023-02-01T17:26:02;6.60;1.00
5286;DHT22;2665;53.112;7.358;2023-02-01T17:28:28;6.50;1.00
5286;DHT22;2665;53.112;7.358;2023-02-01T17:30:54;6.50;1.00
5286;DHT22;2665;53.112;7.358;2023-02-01T17:33:29;6.50;1.00
5286;DHT22;2665;53.112;7.358;2023-02-01T17:35:56;6.50;1.00
5286;DHT22;2665;53.112;7.358;2023-02-01T17:38:22;6.50;1.00
5286;DHT22;2665;53.112;7.358;2023-02-01T17:40:48;6.50;1.00
5286;DHT22;2665;53.112;7.358;2023-02-01T17:43:15;6.50;1.00
5286;DHT22;2665;53.112;7.358;2023-02-01T17:45:45;6.50;1.00
5286;DHT22;2665;53.112;7.358;2023-02-01T17:48:16;6.50;1.00
5286;DHT22;2665;53.112;7.358;2023-02-01T17:50:41;6.50;1.00
5286;DHT22;2665;53.112;7.358;2023-02-01T17:53:09;6.50;1.00
5286;DHT22;2665;53.112;7.358;2023-02-01T17:55:39;6.50;1.00
5286;DHT22;2665;53.112;7.358;2023-02-01T17:58:04;6.40;1.00
5286;DHT22;2665;53.112;7.358;2023-02-01T18:00:30;6.40;1.00
5286;DHT22;2665;53.112;7.358;2023-02-01T18:02:56;6.30;1.00
5286;DHT22;2665;53.112;7.358;2023-02-01T18:05:27;6.30;1.00
5286;DHT22;2665;53.112;7.358;2023-02-01T18:07:53;6.30;1.00
5286;DHT22;2665;53.112;7.358;2023-02-01T18:10:19;6.30;1.00
5286;DHT22;2665;53.112;7.358;2023-02-01T18:12:45;6.30;1.00
5286;DHT22;2665;53.112;7.358;2023-02-01T18:15:22;6.20;1.00
5286;DHT22;2665;53.112;7.358;2023-02-01T18:17:48;6.20;1.00
5286;DHT22;2665;53.112;7.358;2023-02-01T18:20:22;6.30;1.00
5286;DHT22;2665;53.112;7.358;2023-02-01T18:22:48;6.30;1.00
5286;DHT22;2665;53.112;7.358;2023-02-01T18:27:41;6.20;1.00
5286;DHT22;2665;53.112;7.358;2023-02-01T18:30:08;6.20;1.00
5286;DHT22;2665;53.112;7.358;2023-02-01T18:32:33;6.10;1.00
5286;DHT22;2665;53.112;7.358;2023-02-01T18:34:59;6.10;1.00
5286;DHT22;2665;53.112;7.358;2023-02-01T18:37:25;6.10;1.00
5286;DHT22;2665;53.112;7.358;2023-02-01T18:39:50;6.10;1.00
5286;DHT22;2665;53.112;7.358;2023-02-01T18:42:16;6.10;1.00
5286;DHT22;2665;53.112;7.358;2023-02-01T18:44:41;6.10;1.00
5286;DHT22;2665;53.112;7.358;2023-02-01T18:47:08;6.00;1.00
5286;DHT22;2665;53.112;7.358;2023-02-01T18:49:34;6.00;1.00
5286;DHT22;2665;53.112;7.358;2023-02-01T18:51:59;6.10;1.00
5286;DHT22;2665;53.112;7.358;2023-02-01T18:54:25;6.00;1.00
5286;DHT22;2665;53.112;7.358;2023-02-01T18:56:52;6.00;1.00
5286;DHT22;2665;53.112;7.358;2023-02-01T18:59:18;6.00;1.00
5286;DHT22;2665;53.112;7.358;2023-02-01T19:01:44;5.90;1.00
5286;DHT22;2665;53.112;7.358;2023-02-01T19:04:09;5.90;1.00
5286;DHT22;2665;53.112;7.358;2023-02-01T19:06:36;5.90;1.00
5286;DHT22;2665;53.112;7.358;2023-02-01T19:09:01;5.90;1.00
5286;DHT22;2665;53.112;7.358;2023-02-01T19:11:27;5.90;1.00
5286;DHT22;2665;53.112;7.358;2023-02-01T19:13:52;5.90;1.00
5286;DHT22;2665;53.112;7.358;2023-02-01T19:16:19;5.90;1.00
5286;DHT22;2665;53.112;7.358;2023-02-01T19:18:50;5.90;1.00
5286;DHT22;2665;53.112;7.358;2023-02-01T19:21:16;5.80;1.00
5286;DHT22;2665;53.112;7.358;2023-02-01T19:23:42;5.80;1.00
5286;DHT22;2665;53.112;7.358;2023-02-01T19:26:12;5.80;1.00
5286;DHT22;2665;53.112;7.358;2023-02-01T19:28:38;5.80;1.00
5286;DHT22;2665;53.112;7.358;2023-02-01T19:31:06;5.90;1.00
5286;DHT22;2665;53.112;7.358;2023-02-01T19:33:32;5.90;1.00
5286;DHT22;2665;53.112;7.358;2023-02-01T19:36:03;5.80;1.00
5286;DHT22;2665;53.112;7.358;2023-02-01T19:38:30;5.80;1.00
5286;DHT22;2665;53.112;7.358;2023-02-01T19:40:56;5.80;1.00
5286;DHT22;2665;53.112;7.358;2023-02-01T19:43:23;5.80;1.00
5286;DHT22;2665;53.112;7.358;2023-02-01T19:45:48;5.80;1.00
5286;DHT22;2665;53.112;7.358;2023-02-01T19:48:14;5.80;1.00
5286;DHT22;2665;53.112;7.358;2023-02-01T19:50:41;5.80;1.00
5286;DHT22;2665;53.112;7.358;2023-02-01T19:53:07;5.80;14.80
5286;DHT22;2665;53.112;7.358;2023-02-01T19:55:33;5.80;9.10
5286;DHT22;2665;53.112;7.358;2023-02-01T19:57:58;5.80;40.30
5286;DHT22;2665;53.112;7.358;2023-02-01T20:00:26;5.80;49.50
5286;DHT22;2665;53.112;7.358;2023-02-01T20:02:52;5.70;97.30
5286;DHT22;2665;53.112;7.358;2023-02-01T20:05:18;5.70;99.90
5286;DHT22;2665;53.112;7.358;2023-02-01T20:07:44;5.70;99.90
5286;DHT22;2665;53.112;7.358;2023-02-01T20:10:10;5.70;99.90